createdAt,value
2023-04-19T00:01:28.376Z,7.66
2023-04-19T00:03:56.316Z,7.69
2023-04-19T00:06:23.412Z,7.62
2023-04-19T00:08:49.889Z,7.29
2023-04-19T00:11:16.372Z,7.21
2023-04-19T00:13:42.852Z,7.22
2023-04-19T00:16:09.440Z,7.17
2023-04-19T00:18:36.465Z,6.90
2023-04-19T00:21:03.053Z,6.84
2023-04-19T00:23:29.532Z,6.95
2023-04-19T00:25:55.998Z,7.22
2023-04-19T00:28:22.472Z,7.02
2023-04-19T00:30:48.950Z,6.91
2023-04-19T00:33:15.530Z,7.03
2023-04-19T00:35:42.360Z,6.96
2023-04-19T00:38:08.935Z,7.09
2023-04-19T00:40:36.796Z,6.92
2023-04-19T00:43:03.285Z,7.09
2023-04-19T00:45:29.960Z,7.13
2023-04-19T00:47:56.583Z,6.98
2023-04-19T00:50:23.194Z,6.99
2023-04-19T00:52:49.680Z,7.13
2023-04-19T00:55:16.309Z,7.05
2023-04-19T00:57:43.064Z,7.09
2023-04-19T01:00:10.132Z,7.01
2023-04-19T01:02:36.883Z,7.04
2023-04-19T01:05:03.582Z,7.09
2023-04-19T01:07:30.141Z,7.21
2023-04-19T01:09:56.723Z,7.36
2023-04-19T01:12:23.220Z,7.27
2023-04-19T01:14:50.681Z,7.24
2023-04-19T01:17:18.839Z,7.12
2023-04-19T01:19:46.078Z,6.92
2023-04-19T01:22:21.462Z,6.89
2023-04-19T01:24:47.922Z,6.88
2023-04-19T01:27:14.730Z,6.95
2023-04-19T01:29:41.232Z,6.77
2023-04-19T01:32:07.939Z,6.63
2023-04-19T01:34:34.519Z,6.54
2023-04-19T01:37:01.028Z,6.21
2023-04-19T01:39:27.550Z,6.63
2023-04-19T01:41:54.005Z,6.71
2023-04-19T01:44:20.458Z,6.56
2023-04-19T01:46:46.951Z,6.67
2023-04-19T01:49:13.508Z,6.62
2023-04-19T01:51:40.051Z,6.75
2023-04-19T01:54:06.539Z,6.54
2023-04-19T01:56:33.267Z,6.36
2023-04-19T01:58:59.753Z,6.34
2023-04-19T02:01:26.344Z,6.29
2023-04-19T02:03:53.066Z,6.43
2023-04-19T02:06:19.724Z,6.56
2023-04-19T02:08:46.227Z,6.27
2023-04-19T02:11:16.776Z,6.17
2023-04-19T02:13:43.398Z,6.02
2023-04-19T02:16:10.872Z,6.02
2023-04-19T02:18:38.660Z,6.11
2023-04-19T02:21:06.167Z,6.40
2023-04-19T02:23:33.062Z,6.24
2023-04-19T02:26:01.431Z,6.39
2023-04-19T02:28:27.879Z,6.49
2023-04-19T02:30:54.314Z,6.32
2023-04-19T02:33:22.291Z,6.18
2023-04-19T02:35:48.723Z,6.16
2023-04-19T02:38:15.581Z,6.14
2023-04-19T02:40:42.064Z,6.50
2023-04-19T02:43:08.543Z,6.54
2023-04-19T02:45:35.121Z,6.46
2023-04-19T02:48:02.340Z,6.32
2023-04-19T02:50:28.951Z,6.25
2023-04-19T02:52:55.423Z,6.23
2023-04-19T02:55:22.140Z,6.36
2023-04-19T02:57:48.630Z,6.21
2023-04-19T03:00:15.532Z,6.19
2023-04-19T03:02:43.714Z,6.36
2023-04-19T03:05:10.747Z,6.46
2023-04-19T03:07:37.205Z,6.45
2023-04-19T03:10:04.016Z,6.35
2023-04-19T03:12:30.471Z,6.54
2023-04-19T03:14:56.933Z,6.46
2023-04-19T03:17:23.409Z,6.52
2023-04-19T03:19:49.881Z,6.73
2023-04-19T03:22:16.288Z,6.62
2023-04-19T03:24:42.810Z,6.66
2023-04-19T03:27:09.309Z,6.62
2023-04-19T03:29:35.816Z,6.40
2023-04-19T03:32:02.303Z,6.25
2023-04-19T03:34:28.783Z,6.36
2023-04-19T03:36:55.577Z,6.44
2023-04-19T03:39:22.073Z,6.54
2023-04-19T03:41:48.553Z,6.66
2023-04-19T03:44:15.446Z,6.48
2023-04-19T03:46:42.260Z,6.62
2023-04-19T03:49:08.756Z,6.55
2023-04-19T03:51:35.373Z,6.54
2023-04-19T03:54:01.841Z,6.61
2023-04-19T03:56:28.334Z,6.58
2023-04-19T03:58:55.625Z,6.55
2023-04-19T04:01:22.741Z,6.64
2023-04-19T04:03:49.648Z,6.60
2023-04-19T04:06:16.404Z,6.86
2023-04-19T04:08:42.902Z,6.77
2023-04-19T04:11:09.533Z,6.57
2023-04-19T04:13:36.091Z,6.77
2023-04-19T04:16:02.638Z,6.58
2023-04-19T04:18:29.216Z,6.72
2023-04-19T04:20:55.705Z,6.57
2023-04-19T04:23:22.780Z,6.70
2023-04-19T04:25:58.040Z,6.54
2023-04-19T04:28:24.546Z,6.95
2023-04-19T04:30:51.949Z,6.73
2023-04-19T04:33:18.662Z,7.04
2023-04-19T04:35:45.117Z,6.88
2023-04-19T04:38:23.451Z,7.07
2023-04-19T04:40:54.707Z,6.76
2023-04-19T04:43:22.853Z,6.75
2023-04-19T04:45:49.899Z,6.73
2023-04-19T04:48:16.429Z,6.70
2023-04-19T04:50:43.026Z,6.57
2023-04-19T04:53:12.314Z,6.72
2023-04-19T04:55:39.394Z,6.80
2023-04-19T04:58:05.935Z,6.66
2023-04-19T05:00:32.703Z,6.90
2023-04-19T05:03:00.082Z,6.71
2023-04-19T05:05:26.780Z,7.24
2023-04-19T05:07:53.252Z,6.92
2023-04-19T05:10:19.757Z,6.72
2023-04-19T05:12:46.241Z,6.84
2023-04-19T05:15:12.738Z,6.94
2023-04-19T05:17:39.256Z,6.99
2023-04-19T05:20:07.794Z,7.11
2023-04-19T05:22:34.367Z,7.11
2023-04-19T05:25:01.088Z,7.09
2023-04-19T05:27:27.553Z,7.36
2023-04-19T05:29:54.052Z,7.27
2023-04-19T05:32:20.795Z,7.34
2023-04-19T05:34:47.472Z,7.70
2023-04-19T05:37:14.043Z,7.83
2023-04-19T05:39:42.868Z,7.72
2023-04-19T05:42:10.751Z,7.64
2023-04-19T05:44:37.227Z,8.23
2023-04-19T05:47:03.723Z,7.90
2023-04-19T05:49:30.291Z,7.96
2023-04-19T05:51:57.098Z,8.17
2023-04-19T05:54:23.850Z,8.08
2023-04-19T05:56:50.389Z,8.12
2023-04-19T05:59:16.921Z,8.32
2023-04-19T06:01:43.524Z,8.72
2023-04-19T06:04:10.353Z,8.73
2023-04-19T06:06:38.163Z,8.50
2023-04-19T06:09:04.910Z,8.73
2023-04-19T06:11:39.389Z,9.03
2023-04-19T06:14:14.730Z,8.90
2023-04-19T06:16:41.779Z,8.96
2023-04-19T06:19:08.316Z,9.04
2023-04-19T06:21:34.947Z,8.99
2023-04-19T06:24:01.610Z,9.09
2023-04-19T06:26:29.226Z,9.12
2023-04-19T06:28:55.925Z,9.28
2023-04-19T06:31:22.461Z,9.55
2023-04-19T06:33:48.998Z,9.33
2023-04-19T06:36:15.509Z,9.32
2023-04-19T06:38:44.443Z,9.64
2023-04-19T06:41:11.004Z,10.04
2023-04-19T06:43:37.486Z,9.74
2023-04-19T06:46:06.908Z,9.97
2023-04-19T06:48:34.285Z,10.24
2023-04-19T06:51:01.086Z,10.31
2023-04-19T06:53:27.587Z,10.15
2023-04-19T06:56:00.124Z,9.99
2023-04-19T06:58:27.366Z,10.10
2023-04-19T07:00:54.154Z,10.32
2023-04-19T07:03:21.249Z,9.96
2023-04-19T07:05:48.230Z,10.00
2023-04-19T07:08:15.008Z,10.50
2023-04-19T07:10:43.775Z,10.70
2023-04-19T07:13:13.384Z,10.27
2023-04-19T07:15:39.944Z,10.13
2023-04-19T07:18:06.577Z,10.64
2023-04-19T07:20:33.642Z,10.86
2023-04-19T07:23:00.211Z,10.65
2023-04-19T07:25:26.828Z,10.79
2023-04-19T07:27:54.678Z,10.88
2023-04-19T07:30:21.321Z,11.48
2023-04-19T07:32:48.007Z,11.33
2023-04-19T07:35:14.628Z,11.22
2023-04-19T07:37:42.701Z,11.50
2023-04-19T07:40:09.871Z,11.53
2023-04-19T07:42:36.436Z,11.69
2023-04-19T07:45:03.231Z,12.19
2023-04-19T07:47:29.804Z,11.51
2023-04-19T07:49:56.540Z,11.98
2023-04-19T07:52:22.992Z,12.47
2023-04-19T07:54:49.773Z,11.90
2023-04-19T07:57:16.220Z,12.34
2023-04-19T07:59:42.679Z,12.15
2023-04-19T08:02:09.295Z,12.99
2023-04-19T08:04:37.460Z,12.01
2023-04-19T08:07:04.877Z,12.01
2023-04-19T08:09:33.948Z,11.97
2023-04-19T08:12:01.382Z,12.67
2023-04-19T08:14:37.432Z,12.69
2023-04-19T08:17:24.187Z,12.58
2023-04-19T08:19:52.549Z,12.91
2023-04-19T08:22:20.345Z,13.24
2023-04-19T08:24:46.911Z,13.37
2023-04-19T08:27:13.390Z,12.76
2023-04-19T08:29:40.578Z,12.50
2023-04-19T08:32:07.436Z,12.55
2023-04-19T08:34:39.128Z,12.49
2023-04-19T08:37:07.276Z,12.61
2023-04-19T08:39:34.683Z,12.79
2023-04-19T08:42:11.098Z,13.55
2023-04-19T08:44:59.689Z,13.02
2023-04-19T08:47:44.896Z,13.41
2023-04-19T08:50:32.410Z,14.09
2023-04-19T08:53:15.636Z,13.78
2023-04-19T08:56:06.767Z,13.49
2023-04-19T08:58:52.016Z,13.84
2023-04-19T09:01:33.917Z,13.59
2023-04-19T09:04:17.313Z,14.55
2023-04-19T09:06:53.493Z,14.26
2023-04-19T09:11:51.624Z,13.46
2023-04-19T09:14:19.724Z,13.83
2023-04-19T09:16:46.329Z,13.57
2023-04-19T09:19:23.439Z,13.92
2023-04-19T09:21:53.808Z,13.87
2023-04-19T09:25:04.534Z,13.83
2023-04-19T09:27:27.192Z,13.42
2023-04-19T09:29:55.429Z,13.15
2023-04-19T09:32:22.696Z,13.45
2023-04-19T09:35:00.427Z,14.06
2023-04-19T09:39:57.021Z,13.72
2023-04-19T09:42:42.382Z,13.81
2023-04-19T09:45:28.289Z,13.84
2023-04-19T09:48:04.786Z,14.24
2023-04-19T09:50:32.201Z,13.85
2023-04-19T09:53:01.042Z,14.10
2023-04-19T09:55:29.226Z,14.28
2023-04-19T09:57:58.107Z,14.70
2023-04-19T10:00:25.103Z,15.03
2023-04-19T10:02:57.991Z,15.08
2023-04-19T10:05:25.847Z,14.59
2023-04-19T10:07:57.460Z,14.29
2023-04-19T10:10:40.584Z,14.41
2023-04-19T10:13:19.861Z,14.04
2023-04-19T10:15:52.705Z,15.19
2023-04-19T10:18:23.803Z,14.38
2023-04-19T10:21:00.071Z,14.41
2023-04-19T10:23:26.785Z,14.49
2023-04-19T10:26:00.459Z,15.02
2023-04-19T10:28:31.020Z,14.84
2023-04-19T10:31:03.489Z,15.67
2023-04-19T10:33:34.472Z,13.88
2023-04-19T10:36:01.554Z,14.36
2023-04-19T10:38:55.517Z,15.03
2023-04-19T10:41:22.880Z,15.67
2023-04-19T10:44:08.586Z,15.24
2023-04-19T10:46:36.173Z,15.67
2023-04-19T10:49:04.361Z,14.68
2023-04-19T10:51:44.228Z,15.24
2023-04-19T10:54:36.537Z,14.42
2023-04-19T10:57:07.552Z,14.74
2023-04-19T10:59:35.049Z,15.08
2023-04-19T11:02:04.337Z,15.17
2023-04-19T11:04:51.150Z,15.45
2023-04-19T11:07:18.495Z,16.03
2023-04-19T11:09:46.085Z,15.40
2023-04-19T11:12:14.513Z,15.36
2023-04-19T11:14:42.794Z,15.72
2023-04-19T11:17:27.762Z,15.43
2023-04-19T11:20:00.684Z,14.76
2023-04-19T11:22:36.038Z,15.75
2023-04-19T11:25:09.230Z,15.22
2023-04-19T11:27:35.898Z,15.31
2023-04-19T11:30:07.033Z,14.81
2023-04-19T11:32:33.731Z,14.46
2023-04-19T11:35:08.464Z,14.31
2023-04-19T11:37:38.219Z,14.31
2023-04-19T11:40:06.523Z,14.49
2023-04-19T11:42:33.773Z,14.79
2023-04-19T11:45:00.463Z,14.27
2023-04-19T11:47:27.426Z,14.86
2023-04-19T11:49:56.985Z,15.75
2023-04-19T11:52:25.607Z,14.79
2023-04-19T11:54:53.094Z,14.89
2023-04-19T11:57:30.633Z,13.68
2023-04-19T12:00:11.801Z,13.35
2023-04-19T12:02:43.827Z,15.04
2023-04-19T12:05:14.658Z,15.84
2023-04-19T12:08:00.413Z,14.98
2023-04-19T12:10:26.956Z,14.34
2023-04-19T12:12:53.408Z,14.51
2023-04-19T12:15:21.795Z,14.78
2023-04-19T12:18:00.550Z,15.35
2023-04-19T12:20:34.704Z,13.88
2023-04-19T12:23:01.243Z,14.11
2023-04-19T12:25:29.448Z,14.37
2023-04-19T12:27:56.752Z,15.37
2023-04-19T12:30:23.321Z,15.84
2023-04-19T12:32:51.477Z,16.07
2023-04-19T12:35:18.182Z,17.01
2023-04-19T12:37:44.625Z,15.21
2023-04-19T12:40:11.912Z,14.99
2023-04-19T12:42:38.353Z,15.14
2023-04-19T12:45:05.502Z,15.42
2023-04-19T12:47:32.025Z,14.75
2023-04-19T12:49:58.638Z,15.34
2023-04-19T12:52:25.199Z,14.94
2023-04-19T12:54:51.680Z,14.59
2023-04-19T12:57:18.155Z,14.50
2023-04-19T12:59:44.642Z,14.84
2023-04-19T13:02:11.165Z,15.35
2023-04-19T13:04:37.827Z,14.83
2023-04-19T13:07:04.368Z,14.88
2023-04-19T13:09:30.860Z,15.07
2023-04-19T13:11:58.096Z,14.88
2023-04-19T13:14:26.469Z,15.27
2023-04-19T13:16:52.991Z,15.62
2023-04-19T13:19:19.626Z,15.40
2023-04-19T13:21:46.123Z,15.12
2023-04-19T13:24:12.595Z,15.29
2023-04-19T13:26:39.254Z,14.84
2023-04-19T13:29:05.775Z,14.64
2023-04-19T13:31:32.309Z,14.46
2023-04-19T13:34:00.501Z,14.68
2023-04-19T13:36:28.163Z,14.83
2023-04-19T13:38:54.759Z,14.83
2023-04-19T13:41:21.378Z,14.88
2023-04-19T13:43:48.243Z,14.48
2023-04-19T13:46:14.814Z,14.92
2023-04-19T13:48:41.300Z,14.92
2023-04-19T13:51:08.447Z,14.70
2023-04-19T13:53:35.004Z,14.58
2023-04-19T13:56:01.559Z,14.17
2023-04-19T13:58:28.076Z,14.35
2023-04-19T14:00:54.722Z,14.02
2023-04-19T14:03:23.122Z,14.38
2023-04-19T14:05:49.832Z,14.96
2023-04-19T14:08:16.387Z,14.44
2023-04-19T14:10:42.854Z,14.58
2023-04-19T14:13:09.353Z,14.33
2023-04-19T14:15:35.887Z,14.56
2023-04-19T14:18:02.578Z,14.08
2023-04-19T14:20:29.130Z,13.62
2023-04-19T14:22:56.208Z,13.82
2023-04-19T14:25:22.692Z,14.14
2023-04-19T14:27:49.134Z,14.20
2023-04-19T14:30:15.842Z,13.82
2023-04-19T14:32:42.512Z,13.69
2023-04-19T14:35:11.263Z,13.81
2023-04-19T14:37:38.451Z,14.04
2023-04-19T14:40:05.519Z,14.10
2023-04-19T14:42:32.476Z,13.85
2023-04-19T14:44:59.047Z,13.28
2023-04-19T14:47:25.522Z,13.55
2023-04-19T14:49:52.520Z,13.39
2023-04-19T14:52:19.192Z,13.64
2023-04-19T14:54:46.128Z,13.30
2023-04-19T14:57:13.664Z,13.91
2023-04-19T14:59:40.382Z,13.56
2023-04-19T15:02:07.283Z,13.72
2023-04-19T15:04:37.416Z,13.68
2023-04-19T15:07:06.327Z,13.96
2023-04-19T15:09:32.794Z,13.30
2023-04-19T15:11:59.359Z,13.57
2023-04-19T15:14:25.795Z,13.59
2023-04-19T15:16:52.300Z,13.53
2023-04-19T15:19:19.050Z,13.32
2023-04-19T15:21:45.897Z,13.48
2023-04-19T15:24:12.359Z,13.70
2023-04-19T15:26:39.320Z,13.29
2023-04-19T15:29:05.855Z,13.16
2023-04-19T15:31:32.548Z,13.77
2023-04-19T15:34:02.927Z,12.96
2023-04-19T15:36:29.672Z,12.96
2023-04-19T15:38:57.060Z,13.25
2023-04-19T15:41:23.588Z,13.46
2023-04-19T15:43:50.045Z,13.27
2023-04-19T15:46:16.785Z,13.31
2023-04-19T15:48:44.520Z,13.26
2023-04-19T15:51:11.507Z,13.70
2023-04-19T15:53:38.231Z,13.16
2023-04-19T15:56:05.488Z,13.45
2023-04-19T15:58:31.993Z,13.25
2023-04-19T16:00:58.478Z,13.40
2023-04-19T16:03:25.099Z,13.15
2023-04-19T16:05:51.839Z,13.10
2023-04-19T16:08:19.739Z,12.81
2023-04-19T16:10:47.148Z,12.96
2023-04-19T16:13:14.326Z,13.05
2023-04-19T16:15:41.739Z,13.56
2023-04-19T16:18:08.867Z,13.29
2023-04-19T16:20:35.639Z,13.05
2023-04-19T16:23:03.481Z,13.40
2023-04-19T16:25:30.928Z,12.87
2023-04-19T16:27:57.461Z,13.59
2023-04-19T16:30:26.576Z,13.26
2023-04-19T16:32:57.313Z,13.37
2023-04-19T16:35:24.301Z,12.96
2023-04-19T16:37:51.075Z,13.05
2023-04-19T16:40:17.598Z,12.61
2023-04-19T16:42:44.091Z,12.89
2023-04-19T16:45:10.946Z,12.47
2023-04-19T16:47:37.841Z,12.56
2023-04-19T16:50:06.078Z,13.28
2023-04-19T16:52:34.451Z,13.05
2023-04-19T16:55:03.514Z,12.74
2023-04-19T16:57:30.933Z,13.09
2023-04-19T16:59:57.848Z,12.82
2023-04-19T17:02:24.549Z,12.75
2023-04-19T17:04:51.527Z,12.73
2023-04-19T17:07:18.109Z,12.27
2023-04-19T17:09:44.547Z,12.27
2023-04-19T17:12:11.031Z,12.56
2023-04-19T17:14:39.505Z,12.72
2023-04-19T17:17:06.049Z,12.67
2023-04-19T17:19:33.122Z,12.27
2023-04-19T17:22:05.036Z,12.22
2023-04-19T17:24:33.677Z,12.52
2023-04-19T17:27:01.060Z,12.08
2023-04-19T17:29:28.132Z,12.22
2023-04-19T17:31:56.062Z,12.36
2023-04-19T17:34:22.959Z,12.10
2023-04-19T17:36:49.570Z,12.46
2023-04-19T17:39:16.291Z,12.57
2023-04-19T17:41:46.144Z,12.50
2023-04-19T17:44:12.774Z,12.51
2023-04-19T17:46:40.995Z,12.51
2023-04-19T17:49:09.495Z,12.41
2023-04-19T17:51:36.703Z,12.63
2023-04-19T17:54:03.863Z,12.34
2023-04-19T17:56:31.841Z,12.03
2023-04-19T17:59:01.876Z,12.39
2023-04-19T18:01:30.188Z,12.24
2023-04-19T18:03:57.394Z,11.91
2023-04-19T18:06:24.078Z,11.83
2023-04-19T18:08:50.544Z,11.79
2023-04-19T18:11:20.684Z,12.04
2023-04-19T18:13:47.696Z,11.58
2023-04-19T18:16:15.717Z,11.68
2023-04-19T18:18:45.215Z,11.59
2023-04-19T18:21:11.757Z,11.80
2023-04-19T18:23:38.967Z,11.70
2023-04-19T18:26:05.432Z,11.55
2023-04-19T18:28:31.996Z,11.55
2023-04-19T18:30:58.871Z,11.58
2023-04-19T18:33:27.328Z,11.70
2023-04-19T18:35:58.872Z,11.58
2023-04-19T18:38:33.492Z,11.69
2023-04-19T18:41:02.182Z,11.45
2023-04-19T18:43:30.858Z,11.48
2023-04-19T18:46:00.468Z,11.54
2023-04-19T18:48:29.464Z,11.55
2023-04-19T18:50:59.969Z,11.24
2023-04-19T18:53:29.477Z,11.14
2023-04-19T18:56:06.361Z,11.15
2023-04-19T18:58:34.032Z,10.98
2023-04-19T19:01:00.706Z,11.13
2023-04-19T19:05:57.815Z,11.06
2023-04-19T19:08:24.648Z,11.14
2023-04-19T19:13:42.465Z,11.00
2023-04-19T19:16:15.031Z,10.81
2023-04-19T19:18:49.588Z,10.57
2023-04-19T19:21:22.959Z,10.53
2023-04-19T19:23:52.531Z,10.43
2023-04-19T19:26:19.803Z,10.29
2023-04-19T19:28:47.429Z,10.40
2023-04-19T19:31:14.017Z,10.47
2023-04-19T19:33:40.987Z,10.31
2023-04-19T19:36:07.744Z,10.65
2023-04-19T19:38:37.504Z,10.59
2023-04-19T19:41:49.519Z,10.55
2023-04-19T19:43:53.748Z,10.40
2023-04-19T19:46:22.682Z,10.17
2023-04-19T19:48:53.513Z,10.29
2023-04-19T19:51:48.137Z,10.34
2023-04-19T19:54:07.201Z,9.88
2023-04-19T19:59:01.935Z,9.55
2023-04-19T20:01:28.474Z,10.15
2023-04-19T20:03:56.051Z,9.64
2023-04-19T20:08:52.396Z,10.12
2023-04-19T20:11:19.451Z,9.70
2023-04-19T20:13:46.136Z,10.03
2023-04-19T20:16:14.872Z,10.26
2023-04-19T20:18:44.032Z,10.44
2023-04-19T20:21:11.299Z,10.50
2023-04-19T20:23:41.244Z,10.14
2023-04-19T20:26:07.784Z,9.90
2023-04-19T20:28:35.307Z,9.95
2023-04-19T20:31:02.040Z,9.37
2023-04-19T20:33:34.991Z,9.27
2023-04-19T20:36:01.927Z,9.50
2023-04-19T20:38:28.656Z,9.32
2023-04-19T20:40:55.985Z,9.68
2023-04-19T20:43:22.619Z,9.90
2023-04-19T20:45:49.264Z,9.95
2023-04-19T20:48:16.048Z,9.64
2023-04-19T20:50:42.705Z,9.42
2023-04-19T20:53:09.240Z,9.49
2023-04-19T20:55:35.790Z,9.77
2023-04-19T20:58:02.569Z,9.72
2023-04-19T21:00:29.107Z,9.85
2023-04-19T21:02:55.843Z,9.64
2023-04-19T21:05:22.703Z,9.83
2023-04-19T21:07:49.269Z,10.01
2023-04-19T21:10:17.269Z,10.05
2023-04-19T21:12:43.896Z,10.21
2023-04-19T21:15:12.144Z,10.04
2023-04-19T21:17:38.889Z,10.09
2023-04-19T21:20:12.030Z,9.97
2023-04-19T21:22:43.020Z,10.13
2023-04-19T21:25:11.116Z,10.02
2023-04-19T21:27:40.332Z,10.05
2023-04-19T21:30:07.926Z,10.09
2023-04-19T21:32:34.464Z,10.24
2023-04-19T21:35:01.455Z,10.44
2023-04-19T21:37:28.403Z,10.39
2023-04-19T21:39:56.050Z,10.10
2023-04-19T21:42:22.833Z,10.29
2023-04-19T21:44:49.294Z,10.05
2023-04-19T21:47:15.759Z,10.35
2023-04-19T21:49:54.751Z,10.39
2023-04-19T21:52:21.234Z,10.35
2023-04-19T21:54:48.729Z,10.32
2023-04-19T21:57:15.221Z,10.37
2023-04-19T21:59:41.689Z,10.35
2023-04-19T22:02:08.282Z,10.41
2023-04-19T22:04:36.675Z,9.86
2023-04-19T22:07:03.215Z,9.77
2023-04-19T22:09:30.416Z,9.46
2023-04-19T22:11:56.891Z,9.82
2023-04-19T22:14:24.035Z,9.78
2023-04-19T22:16:50.923Z,9.45
2023-04-19T22:19:18.224Z,9.48
2023-04-19T22:21:46.240Z,9.61
2023-04-19T22:24:12.777Z,9.77
2023-04-19T22:26:39.230Z,9.68
2023-04-19T22:29:05.977Z,9.75
2023-04-19T22:31:32.429Z,9.70
2023-04-19T22:33:58.912Z,9.68
2023-04-19T22:36:25.691Z,9.65
2023-04-19T22:38:52.148Z,9.61
2023-04-19T22:41:18.595Z,9.64
2023-04-19T22:43:45.501Z,9.11
2023-04-19T22:46:12.663Z,9.26
2023-04-19T22:48:39.197Z,9.17
2023-04-19T22:51:06.468Z,9.12
2023-04-19T22:53:33.018Z,9.24
2023-04-19T22:55:59.451Z,9.22
2023-04-19T22:58:25.915Z,9.12
2023-04-19T23:00:52.542Z,9.13
2023-04-19T23:03:19.046Z,9.20
2023-04-19T23:05:47.238Z,9.15
2023-04-19T23:08:15.156Z,8.93
2023-04-19T23:10:42.410Z,9.27
2023-04-19T23:13:10.433Z,9.30
2023-04-19T23:15:38.300Z,9.14
2023-04-19T23:18:05.020Z,9.41
2023-04-19T23:20:31.664Z,9.34
2023-04-19T23:22:59.371Z,9.53
2023-04-19T23:25:26.011Z,9.49
2023-04-19T23:27:52.592Z,9.46
2023-04-19T23:30:19.463Z,9.52
2023-04-19T23:32:46.029Z,9.39
2023-04-19T23:35:12.521Z,9.33
2023-04-19T23:37:39.401Z,9.50
2023-04-19T23:40:06.666Z,9.47
2023-04-19T23:42:33.377Z,9.43
2023-04-19T23:44:59.847Z,9.65
2023-04-19T23:47:26.427Z,9.79
2023-04-19T23:49:52.882Z,9.75
2023-04-19T23:52:22.589Z,9.57
2023-04-19T23:54:49.632Z,9.72
2023-04-19T23:57:16.158Z,9.82
2023-04-19T23:59:42.595Z,9.91
